sensor_id;sensor_type;location;lat;lon;timestamp;temperature;humidity
16263;DHT22;8239;48.594;8.598;2022-10-16T00:01:06;12.60;99.90
16263;DHT22;8239;48.594;8.598;2022-10-16T00:03:33;12.70;99.90
16263;DHT22;8239;48.594;8.598;2022-10-16T00:06:01;12.70;99.90
16263;DHT22;8239;48.594;8.598;2022-10-16T00:08:29;12.60;99.90
16263;DHT22;8239;48.594;8.598;2022-10-16T00:11:01;12.60;99.90
16263;DHT22;8239;48.594;8.598;2022-10-16T00:13:29;12.60;99.90
16263;DHT22;8239;48.594;8.598;2022-10-16T00:15:58;12.60;99.90
16263;DHT22;8239;48.594;8.598;2022-10-16T00:18:26;12.60;99.90
16263;DHT22;8239;48.594;8.598;2022-10-16T00:20:53;12.70;99.90
16263;DHT22;8239;48.594;8.598;2022-10-16T00:23:21;12.70;99.90
16263;DHT22;8239;48.594;8.598;2022-10-16T00:25:56;12.70;99.90
16263;DHT22;8239;48.594;8.598;2022-10-16T00:28:23;12.80;99.90
16263;DHT22;8239;48.594;8.598;2022-10-16T00:30:50;12.80;99.90
16263;DHT22;8239;48.594;8.598;2022-10-16T00:33:17;12.80;99.90
16263;DHT22;8239;48.594;8.598;2022-10-16T00:35:44;12.80;99.90
16263;DHT22;8239;48.594;8.598;2022-10-16T00:38:11;12.90;99.90
16263;DHT22;8239;48.594;8.598;2022-10-16T00:40:39;12.90;99.90
16263;DHT22;8239;48.594;8.598;2022-10-16T00:43:13;13.00;99.90
16263;DHT22;8239;48.594;8.598;2022-10-16T00:45:41;13.00;99.90
16263;DHT22;8239;48.594;8.598;2022-10-16T00:48:11;13.10;99.90
16263;DHT22;8239;48.594;8.598;2022-10-16T00:51:17;13.10;99.90
16263;DHT22;8239;48.594;8.598;2022-10-16T00:53:54;13.20;99.90
16263;DHT22;8239;48.594;8.598;2022-10-16T00:56:43;13.20;99.90
16263;DHT22;8239;48.594;8.598;2022-10-16T00:59:35;13.30;99.90
16263;DHT22;8239;48.594;8.598;2022-10-16T01:02:04;13.30;99.90
16263;DHT22;8239;48.594;8.598;2022-10-16T01:04:35;13.40;99.90
16263;DHT22;8239;48.594;8.598;2022-10-16T01:07:09;13.40;99.90
16263;DHT22;8239;48.594;8.598;2022-10-16T01:09:51;13.40;99.90
16263;DHT22;8239;48.594;8.598;2022-10-16T01:12:26;13.40;99.90
16263;DHT22;8239;48.594;8.598;2022-10-16T01:15:13;13.40;99.90
16263;DHT22;8239;48.594;8.598;2022-10-16T01:18:00;13.40;99.90
16263;DHT22;8239;48.594;8.598;2022-10-16T01:20:33;13.40;99.90
16263;DHT22;8239;48.594;8.598;2022-10-16T01:23:15;13.40;99.90
16263;DHT22;8239;48.594;8.598;2022-10-16T01:26:20;13.30;99.90
16263;DHT22;8239;48.594;8.598;2022-10-16T01:29:22;13.30;99.90
16263;DHT22;8239;48.594;8.598;2022-10-16T01:32:17;13.20;99.90
16263;DHT22;8239;48.594;8.598;2022-10-16T01:34:59;13.20;99.90
16263;DHT22;8239;48.594;8.598;2022-10-16T01:37:49;13.20;99.90
16263;DHT22;8239;48.594;8.598;2022-10-16T01:40:52;13.10;99.90
16263;DHT22;8239;48.594;8.598;2022-10-16T01:43:42;13.10;99.90
16263;DHT22;8239;48.594;8.598;2022-10-16T01:46:24;13.10;99.90
16263;DHT22;8239;48.594;8.598;2022-10-16T01:49:06;13.10;99.90
16263;DHT22;8239;48.594;8.598;2022-10-16T01:51:45;13.10;99.90
16263;DHT22;8239;48.594;8.598;2022-10-16T01:54:29;13.10;99.90
16263;DHT22;8239;48.594;8.598;2022-10-16T01:57:24;13.10;99.90
16263;DHT22;8239;48.594;8.598;2022-10-16T02:00:10;13.00;99.90
16263;DHT22;8239;48.594;8.598;2022-10-16T02:03:06;13.00;99.90
16263;DHT22;8239;48.594;8.598;2022-10-16T02:05:54;13.00;99.90
16263;DHT22;8239;48.594;8.598;2022-10-16T02:08:30;12.90;99.90
16263;DHT22;8239;48.594;8.598;2022-10-16T02:11:02;12.90;99.90
16263;DHT22;8239;48.594;8.598;2022-10-16T02:13:45;12.90;99.90
16263;DHT22;8239;48.594;8.598;2022-10-16T02:16:47;12.80;99.90
16263;DHT22;8239;48.594;8.598;2022-10-16T02:19:48;12.70;99.90
16263;DHT22;8239;48.594;8.598;2022-10-16T02:22:35;12.70;99.90
16263;DHT22;8239;48.594;8.598;2022-10-16T02:25:22;12.70;99.90
16263;DHT22;8239;48.594;8.598;2022-10-16T02:28:11;12.60;99.90
16263;DHT22;8239;48.594;8.598;2022-10-16T02:30:48;12.60;99.90
16263;DHT22;8239;48.594;8.598;2022-10-16T02:33:17;12.60;99.90
16263;DHT22;8239;48.594;8.598;2022-10-16T02:35:47;12.50;99.90
16263;DHT22;8239;48.594;8.598;2022-10-16T02:38:16;12.50;99.90
16263;DHT22;8239;48.594;8.598;2022-10-16T02:40:44;12.50;99.90
16263;DHT22;8239;48.594;8.598;2022-10-16T02:43:11;12.40;99.90
16263;DHT22;8239;48.594;8.598;2022-10-16T02:45:39;12.40;99.90
16263;DHT22;8239;48.594;8.598;2022-10-16T02:48:06;12.30;99.90
16263;DHT22;8239;48.594;8.598;2022-10-16T02:50:33;12.30;99.90
16263;DHT22;8239;48.594;8.598;2022-10-16T02:53:02;12.20;99.90
16263;DHT22;8239;48.594;8.598;2022-10-16T02:55:29;12.20;99.90
16263;DHT22;8239;48.594;8.598;2022-10-16T02:57:55;12.20;99.90
16263;DHT22;8239;48.594;8.598;2022-10-16T03:00:22;12.20;99.90
16263;DHT22;8239;48.594;8.598;2022-10-16T03:02:49;12.20;99.90
16263;DHT22;8239;48.594;8.598;2022-10-16T03:05:17;12.20;99.90
16263;DHT22;8239;48.594;8.598;2022-10-16T03:07:44;12.20;99.90
16263;DHT22;8239;48.594;8.598;2022-10-16T03:10:12;12.10;99.90
16263;DHT22;8239;48.594;8.598;2022-10-16T03:12:39;12.10;99.90
16263;DHT22;8239;48.594;8.598;2022-10-16T03:15:07;12.10;99.90
16263;DHT22;8239;48.594;8.598;2022-10-16T03:17:34;12.00;99.90
16263;DHT22;8239;48.594;8.598;2022-10-16T03:20:01;12.00;99.90
16263;DHT22;8239;48.594;8.598;2022-10-16T03:22:28;12.00;99.90
16263;DHT22;8239;48.594;8.598;2022-10-16T03:24:55;12.00;99.90
16263;DHT22;8239;48.594;8.598;2022-10-16T03:27:23;11.90;99.90
16263;DHT22;8239;48.594;8.598;2022-10-16T03:29:50;11.90;99.90
16263;DHT22;8239;48.594;8.598;2022-10-16T03:32:17;11.90;99.90
16263;DHT22;8239;48.594;8.598;2022-10-16T03:34:45;11.90;99.90
16263;DHT22;8239;48.594;8.598;2022-10-16T03:37:12;11.90;99.90
16263;DHT22;8239;48.594;8.598;2022-10-16T03:39:40;11.80;99.90
16263;DHT22;8239;48.594;8.598;2022-10-16T03:42:07;11.80;99.90
16263;DHT22;8239;48.594;8.598;2022-10-16T03:44:35;11.80;99.90
16263;DHT22;8239;48.594;8.598;2022-10-16T03:47:02;11.80;99.90
16263;DHT22;8239;48.594;8.598;2022-10-16T03:49:29;11.80;99.90
16263;DHT22;8239;48.594;8.598;2022-10-16T03:51:56;11.80;99.90
16263;DHT22;8239;48.594;8.598;2022-10-16T03:54:23;11.90;99.90
16263;DHT22;8239;48.594;8.598;2022-10-16T03:56:50;11.90;99.90
16263;DHT22;8239;48.594;8.598;2022-10-16T03:59:17;11.90;99.90
16263;DHT22;8239;48.594;8.598;2022-10-16T04:01:45;11.90;99.90
16263;DHT22;8239;48.594;8.598;2022-10-16T04:04:12;11.80;99.90
16263;DHT22;8239;48.594;8.598;2022-10-16T04:06:39;11.80;99.90
16263;DHT22;8239;48.594;8.598;2022-10-16T04:09:06;11.80;99.90
16263;DHT22;8239;48.594;8.598;2022-10-16T04:11:33;11.80;99.90
16263;DHT22;8239;48.594;8.598;2022-10-16T04:14:00;11.80;99.90
16263;DHT22;8239;48.594;8.598;2022-10-16T04:16:27;11.80;99.90
16263;DHT22;8239;48.594;8.598;2022-10-16T04:18:55;11.80;99.90
16263;DHT22;8239;48.594;8.598;2022-10-16T04:21:22;11.70;99.90
16263;DHT22;8239;48.594;8.598;2022-10-16T04:23:50;11.70;99.90
16263;DHT22;8239;48.594;8.598;2022-10-16T04:26:17;11.70;99.90
16263;DHT22;8239;48.594;8.598;2022-10-16T04:28:44;11.60;99.90
16263;DHT22;8239;48.594;8.598;2022-10-16T04:31:11;11.60;99.90
16263;DHT22;8239;48.594;8.598;2022-10-16T04:33:38;11.60;99.90
16263;DHT22;8239;48.594;8.598;2022-10-16T04:36:07;11.60;99.90
16263;DHT22;8239;48.594;8.598;2022-10-16T04:38:35;11.60;99.90
16263;DHT22;8239;48.594;8.598;2022-10-16T04:41:03;11.60;99.90
16263;DHT22;8239;48.594;8.598;2022-10-16T04:43:30;11.60;99.90
16263;DHT22;8239;48.594;8.598;2022-10-16T04:45:57;11.60;99.90
16263;DHT22;8239;48.594;8.598;2022-10-16T04:48:24;11.60;99.90
16263;DHT22;8239;48.594;8.598;2022-10-16T04:50:51;11.50;99.90
16263;DHT22;8239;48.594;8.598;2022-10-16T04:53:22;11.50;99.90
16263;DHT22;8239;48.594;8.598;2022-10-16T04:55:49;11.50;99.90
16263;DHT22;8239;48.594;8.598;2022-10-16T04:58:16;11.50;99.90
16263;DHT22;8239;48.594;8.598;2022-10-16T05:00:44;11.40;99.90
16263;DHT22;8239;48.594;8.598;2022-10-16T05:03:11;11.40;99.90
16263;DHT22;8239;48.594;8.598;2022-10-16T05:05:42;11.40;99.90
16263;DHT22;8239;48.594;8.598;2022-10-16T05:08:09;11.30;99.90
16263;DHT22;8239;48.594;8.598;2022-10-16T05:10:38;11.30;99.90
16263;DHT22;8239;48.594;8.598;2022-10-16T05:13:05;11.20;99.90
16263;DHT22;8239;48.594;8.598;2022-10-16T05:15:32;11.20;99.90
16263;DHT22;8239;48.594;8.598;2022-10-16T05:17:59;11.20;99.90
16263;DHT22;8239;48.594;8.598;2022-10-16T05:20:26;11.20;99.90
16263;DHT22;8239;48.594;8.598;2022-10-16T05:22:53;11.20;99.90
16263;DHT22;8239;48.594;8.598;2022-10-16T05:25:20;11.20;99.90
16263;DHT22;8239;48.594;8.598;2022-10-16T05:27:49;11.10;99.90
16263;DHT22;8239;48.594;8.598;2022-10-16T05:30:16;11.10;99.90
16263;DHT22;8239;48.594;8.598;2022-10-16T05:32:46;11.10;99.90
16263;DHT22;8239;48.594;8.598;2022-10-16T05:35:14;11.10;99.90
16263;DHT22;8239;48.594;8.598;2022-10-16T05:37:41;11.10;99.90
16263;DHT22;8239;48.594;8.598;2022-10-16T05:40:09;11.10;99.90
16263;DHT22;8239;48.594;8.598;2022-10-16T05:42:36;11.00;99.90
16263;DHT22;8239;48.594;8.598;2022-10-16T05:45:06;11.00;99.90
16263;DHT22;8239;48.594;8.598;2022-10-16T05:47:35;11.00;99.90
16263;DHT22;8239;48.594;8.598;2022-10-16T05:50:02;11.00;99.90
16263;DHT22;8239;48.594;8.598;2022-10-16T05:52:30;11.00;99.90
16263;DHT22;8239;48.594;8.598;2022-10-16T05:54:57;11.00;99.90
16263;DHT22;8239;48.594;8.598;2022-10-16T05:57:24;11.00;99.90
16263;DHT22;8239;48.594;8.598;2022-10-16T05:59:51;11.00;99.90
16263;DHT22;8239;48.594;8.598;2022-10-16T06:02:20;11.00;99.90
16263;DHT22;8239;48.594;8.598;2022-10-16T06:04:47;11.10;99.90
16263;DHT22;8239;48.594;8.598;2022-10-16T06:07:14;11.20;99.90
16263;DHT22;8239;48.594;8.598;2022-10-16T06:09:41;11.20;99.90
16263;DHT22;8239;48.594;8.598;2022-10-16T06:12:08;11.30;99.90
16263;DHT22;8239;48.594;8.598;2022-10-16T06:14:35;11.40;99.90
16263;DHT22;8239;48.594;8.598;2022-10-16T06:17:02;11.50;99.90
16263;DHT22;8239;48.594;8.598;2022-10-16T06:19:30;11.50;99.90
16263;DHT22;8239;48.594;8.598;2022-10-16T06:21:57;11.50;99.90
16263;DHT22;8239;48.594;8.598;2022-10-16T06:24:24;11.50;99.90
16263;DHT22;8239;48.594;8.598;2022-10-16T06:26:51;11.50;99.90
16263;DHT22;8239;48.594;8.598;2022-10-16T06:29:18;11.60;99.90
16263;DHT22;8239;48.594;8.598;2022-10-16T06:31:48;11.60;99.90
16263;DHT22;8239;48.594;8.598;2022-10-16T06:34:15;11.70;99.90
16263;DHT22;8239;48.594;8.598;2022-10-16T06:36:43;11.70;99.90
16263;DHT22;8239;48.594;8.598;2022-10-16T06:39:10;11.70;99.90
16263;DHT22;8239;48.594;8.598;2022-10-16T06:41:37;11.80;99.90
16263;DHT22;8239;48.594;8.598;2022-10-16T06:44:05;11.80;99.90
16263;DHT22;8239;48.594;8.598;2022-10-16T06:46:33;11.90;99.90
16263;DHT22;8239;48.594;8.598;2022-10-16T06:49:00;12.00;99.90
16263;DHT22;8239;48.594;8.598;2022-10-16T06:51:27;12.10;99.90
16263;DHT22;8239;48.594;8.598;2022-10-16T06:53:56;12.20;99.90
16263;DHT22;8239;48.594;8.598;2022-10-16T06:56:25;12.30;99.90
16263;DHT22;8239;48.594;8.598;2022-10-16T06:58:52;12.40;99.90
16263;DHT22;8239;48.594;8.598;2022-10-16T07:01:21;12.50;99.90
16263;DHT22;8239;48.594;8.598;2022-10-16T07:03:49;12.70;99.90
16263;DHT22;8239;48.594;8.598;2022-10-16T07:06:17;13.10;99.90
16263;DHT22;8239;48.594;8.598;2022-10-16T07:08:45;13.40;99.90
16263;DHT22;8239;48.594;8.598;2022-10-16T07:11:15;13.50;99.90
16263;DHT22;8239;48.594;8.598;2022-10-16T07:13:43;13.60;99.90
16263;DHT22;8239;48.594;8.598;2022-10-16T07:16:13;13.60;99.90
16263;DHT22;8239;48.594;8.598;2022-10-16T07:18:41;13.60;99.90
16263;DHT22;8239;48.594;8.598;2022-10-16T07:21:11;13.60;99.90
16263;DHT22;8239;48.594;8.598;2022-10-16T07:23:39;13.60;99.90
16263;DHT22;8239;48.594;8.598;2022-10-16T07:26:07;13.60;99.90
16263;DHT22;8239;48.594;8.598;2022-10-16T07:28:35;13.60;99.90
16263;DHT22;8239;48.594;8.598;2022-10-16T07:31:05;13.60;99.90
16263;DHT22;8239;48.594;8.598;2022-10-16T07:33:34;13.70;99.90
16263;DHT22;8239;48.594;8.598;2022-10-16T07:36:01;13.70;99.90
16263;DHT22;8239;48.594;8.598;2022-10-16T07:38:28;13.80;99.90
16263;DHT22;8239;48.594;8.598;2022-10-16T07:40:56;13.80;99.90
16263;DHT22;8239;48.594;8.598;2022-10-16T07:43:24;13.90;99.90
16263;DHT22;8239;48.594;8.598;2022-10-16T07:45:53;13.90;99.90
16263;DHT22;8239;48.594;8.598;2022-10-16T07:48:21;14.00;99.90
16263;DHT22;8239;48.594;8.598;2022-10-16T07:50:49;14.10;99.90
16263;DHT22;8239;48.594;8.598;2022-10-16T07:53:16;14.20;99.90
16263;DHT22;8239;48.594;8.598;2022-10-16T07:55:43;14.40;99.90
16263;DHT22;8239;48.594;8.598;2022-10-16T07:58:10;14.50;99.90
16263;DHT22;8239;48.594;8.598;2022-10-16T08:00:37;14.70;99.90
16263;DHT22;8239;48.594;8.598;2022-10-16T08:03:05;14.90;99.90
16263;DHT22;8239;48.594;8.598;2022-10-16T08:05:33;15.00;99.90
16263;DHT22;8239;48.594;8.598;2022-10-16T08:08:00;15.20;99.90
16263;DHT22;8239;48.594;8.598;2022-10-16T08:10:28;15.30;99.90
16263;DHT22;8239;48.594;8.598;2022-10-16T08:12:57;15.50;99.90
16263;DHT22;8239;48.594;8.598;2022-10-16T08:15:24;15.60;99.90
16263;DHT22;8239;48.594;8.598;2022-10-16T08:17:56;15.70;99.90
16263;DHT22;8239;48.594;8.598;2022-10-16T08:20:24;15.70;99.90
16263;DHT22;8239;48.594;8.598;2022-10-16T08:22:52;15.70;99.90
16263;DHT22;8239;48.594;8.598;2022-10-16T08:25:20;15.60;99.90
16263;DHT22;8239;48.594;8.598;2022-10-16T08:27:47;15.50;99.90
16263;DHT22;8239;48.594;8.598;2022-10-16T08:30:14;15.50;99.90
16263;DHT22;8239;48.594;8.598;2022-10-16T08:32:41;15.50;99.90
16263;DHT22;8239;48.594;8.598;2022-10-16T08:35:08;15.60;99.90
16263;DHT22;8239;48.594;8.598;2022-10-16T08:37:37;15.80;99.90
16263;DHT22;8239;48.594;8.598;2022-10-16T08:40:07;16.10;99.90
16263;DHT22;8239;48.594;8.598;2022-10-16T08:42:47;16.40;99.90
16263;DHT22;8239;48.594;8.598;2022-10-16T08:45:30;16.80;99.90
16263;DHT22;8239;48.594;8.598;2022-10-16T08:48:10;17.30;99.90
16263;DHT22;8239;48.594;8.598;2022-10-16T08:50:39;17.80;99.90
16263;DHT22;8239;48.594;8.598;2022-10-16T08:53:13;18.10;99.90
16263;DHT22;8239;48.594;8.598;2022-10-16T08:55:43;18.50;99.90
16263;DHT22;8239;48.594;8.598;2022-10-16T08:58:13;19.60;99.90
16263;DHT22;8239;48.594;8.598;2022-10-16T09:00:42;21.70;99.90
16263;DHT22;8239;48.594;8.598;2022-10-16T09:03:17;23.40;99.90
16263;DHT22;8239;48.594;8.598;2022-10-16T09:06:10;24.40;99.90
16263;DHT22;8239;48.594;8.598;2022-10-16T09:08:49;25.00;98.60
16263;DHT22;8239;48.594;8.598;2022-10-16T09:11:23;25.30;96.80
16263;DHT22;8239;48.594;8.598;2022-10-16T09:13:58;25.00;95.10
16263;DHT22;8239;48.594;8.598;2022-10-16T09:16:30;24.50;94.70
16263;DHT22;8239;48.594;8.598;2022-10-16T09:19:04;24.00;95.10
16263;DHT22;8239;48.594;8.598;2022-10-16T09:21:36;24.00;96.00
16263;DHT22;8239;48.594;8.598;2022-10-16T09:24:11;24.70;95.00
16263;DHT22;8239;48.594;8.598;2022-10-16T09:26:39;25.70;90.70
16263;DHT22;8239;48.594;8.598;2022-10-16T09:29:06;26.80;90.10
16263;DHT22;8239;48.594;8.598;2022-10-16T09:31:36;27.60;85.30
16263;DHT22;8239;48.594;8.598;2022-10-16T09:34:04;28.70;82.60
16263;DHT22;8239;48.594;8.598;2022-10-16T09:36:39;30.30;77.50
16263;DHT22;8239;48.594;8.598;2022-10-16T09:39:09;32.20;71.50
16263;DHT22;8239;48.594;8.598;2022-10-16T09:41:38;33.80;60.70
16263;DHT22;8239;48.594;8.598;2022-10-16T09:44:17;34.90;56.60
16263;DHT22;8239;48.594;8.598;2022-10-16T09:46:46;35.40;52.00
16263;DHT22;8239;48.594;8.598;2022-10-16T09:49:21;36.10;49.50
16263;DHT22;8239;48.594;8.598;2022-10-16T09:51:49;36.20;47.50
16263;DHT22;8239;48.594;8.598;2022-10-16T09:54:19;36.60;45.80
16263;DHT22;8239;48.594;8.598;2022-10-16T09:56:47;37.10;45.20
16263;DHT22;8239;48.594;8.598;2022-10-16T09:59:18;37.20;42.90
16263;DHT22;8239;48.594;8.598;2022-10-16T10:01:48;37.60;42.90
16263;DHT22;8239;48.594;8.598;2022-10-16T10:04:16;38.20;41.90
16263;DHT22;8239;48.594;8.598;2022-10-16T10:06:45;38.60;41.40
16263;DHT22;8239;48.594;8.598;2022-10-16T10:09:20;38.90;40.60
16263;DHT22;8239;48.594;8.598;2022-10-16T10:11:52;39.30;39.70
16263;DHT22;8239;48.594;8.598;2022-10-16T10:14:32;39.70;38.50
16263;DHT22;8239;48.594;8.598;2022-10-16T10:17:14;39.60;37.70
16263;DHT22;8239;48.594;8.598;2022-10-16T10:19:46;38.60;37.30
16263;DHT22;8239;48.594;8.598;2022-10-16T10:22:17;37.80;38.70
16263;DHT22;8239;48.594;8.598;2022-10-16T10:24:55;37.40;39.00
16263;DHT22;8239;48.594;8.598;2022-10-16T10:27:26;37.30;39.40
16263;DHT22;8239;48.594;8.598;2022-10-16T10:30:00;37.30;39.60
16263;DHT22;8239;48.594;8.598;2022-10-16T10:32:32;37.10;38.90
16263;DHT22;8239;48.594;8.598;2022-10-16T10:35:14;36.50;40.10
16263;DHT22;8239;48.594;8.598;2022-10-16T10:38:06;35.60;40.10
16263;DHT22;8239;48.594;8.598;2022-10-16T10:40:47;34.20;41.90
16263;DHT22;8239;48.594;8.598;2022-10-16T10:43:25;33.00;43.50
16263;DHT22;8239;48.594;8.598;2022-10-16T10:45:59;31.90;44.60
16263;DHT22;8239;48.594;8.598;2022-10-16T10:48:46;30.80;46.40
16263;DHT22;8239;48.594;8.598;2022-10-16T10:51:20;29.60;48.50
16263;DHT22;8239;48.594;8.598;2022-10-16T10:53:54;28.60;50.50
16263;DHT22;8239;48.594;8.598;2022-10-16T10:56:40;28.00;52.10
16263;DHT22;8239;48.594;8.598;2022-10-16T10:59:25;27.60;53.70
16263;DHT22;8239;48.594;8.598;2022-10-16T11:01:56;27.20;54.80
16263;DHT22;8239;48.594;8.598;2022-10-16T11:07:26;27.00;55.70
16263;DHT22;8239;48.594;8.598;2022-10-16T11:09:59;27.20;56.30
16263;DHT22;8239;48.594;8.598;2022-10-16T11:12:33;27.50;55.90
16263;DHT22;8239;48.594;8.598;2022-10-16T11:15:04;27.80;56.10
16263;DHT22;8239;48.594;8.598;2022-10-16T11:17:38;28.80;55.00
16263;DHT22;8239;48.594;8.598;2022-10-16T11:20:13;30.20;52.80
16263;DHT22;8239;48.594;8.598;2022-10-16T11:22:44;31.30;50.30
16263;DHT22;8239;48.594;8.598;2022-10-16T11:25:17;31.80;49.00
16263;DHT22;8239;48.594;8.598;2022-10-16T11:27:50;32.30;46.70
16263;DHT22;8239;48.594;8.598;2022-10-16T11:30:22;33.20;44.90
16263;DHT22;8239;48.594;8.598;2022-10-16T11:33:00;34.10;43.70
16263;DHT22;8239;48.594;8.598;2022-10-16T11:35:38;34.00;41.60
16263;DHT22;8239;48.594;8.598;2022-10-16T11:38:12;33.30;43.90
16263;DHT22;8239;48.594;8.598;2022-10-16T11:40:41;33.80;44.70
16263;DHT22;8239;48.594;8.598;2022-10-16T11:43:14;34.50;42.80
16263;DHT22;8239;48.594;8.598;2022-10-16T11:45:45;35.60;42.10
16263;DHT22;8239;48.594;8.598;2022-10-16T11:48:20;36.00;38.60
16263;DHT22;8239;48.594;8.598;2022-10-16T11:50:51;35.10;38.20
16263;DHT22;8239;48.594;8.598;2022-10-16T11:53:28;33.90;39.60
16263;DHT22;8239;48.594;8.598;2022-10-16T11:55:59;32.50;40.60
16263;DHT22;8239;48.594;8.598;2022-10-16T11:58:29;31.00;43.60
16263;DHT22;8239;48.594;8.598;2022-10-16T12:01:02;30.00;46.70
16263;DHT22;8239;48.594;8.598;2022-10-16T12:03:36;30.10;48.60
16263;DHT22;8239;48.594;8.598;2022-10-16T12:06:25;31.30;47.90
16263;DHT22;8239;48.594;8.598;2022-10-16T12:08:54;33.10;45.30
16263;DHT22;8239;48.594;8.598;2022-10-16T12:11:34;34.50;43.00
16263;DHT22;8239;48.594;8.598;2022-10-16T12:14:21;34.70;40.30
16263;DHT22;8239;48.594;8.598;2022-10-16T12:16:55;33.80;41.10
16263;DHT22;8239;48.594;8.598;2022-10-16T12:19:23;32.50;42.50
16263;DHT22;8239;48.594;8.598;2022-10-16T12:21:52;31.60;43.20
16263;DHT22;8239;48.594;8.598;2022-10-16T12:24:42;31.00;43.60
16263;DHT22;8239;48.594;8.598;2022-10-16T12:27:23;31.00;44.80
16263;DHT22;8239;48.594;8.598;2022-10-16T12:29:57;31.30;45.10
16263;DHT22;8239;48.594;8.598;2022-10-16T12:32:30;31.70;44.60
16263;DHT22;8239;48.594;8.598;2022-10-16T12:34:59;32.40;43.80
16263;DHT22;8239;48.594;8.598;2022-10-16T12:37:29;33.00;43.60
16263;DHT22;8239;48.594;8.598;2022-10-16T12:39:58;32.90;41.10
16263;DHT22;8239;48.594;8.598;2022-10-16T12:42:33;32.60;42.50
16263;DHT22;8239;48.594;8.598;2022-10-16T12:45:24;32.10;42.50
16263;DHT22;8239;48.594;8.598;2022-10-16T12:47:53;32.00;43.80
16263;DHT22;8239;48.594;8.598;2022-10-16T12:52:54;31.60;44.30
16263;DHT22;8239;48.594;8.598;2022-10-16T12:55:22;31.50;45.40
16263;DHT22;8239;48.594;8.598;2022-10-16T12:58:03;31.50;45.40
16263;DHT22;8239;48.594;8.598;2022-10-16T13:00:40;31.40;46.20
16263;DHT22;8239;48.594;8.598;2022-10-16T13:03:38;31.70;47.00
16263;DHT22;8239;48.594;8.598;2022-10-16T13:06:20;32.60;45.80
16263;DHT22;8239;48.594;8.598;2022-10-16T13:09:02;32.80;43.30
16263;DHT22;8239;48.594;8.598;2022-10-16T13:11:51;32.70;43.20
16263;DHT22;8239;48.594;8.598;2022-10-16T13:14:44;32.50;44.70
16263;DHT22;8239;48.594;8.598;2022-10-16T13:17:22;32.20;45.00
16263;DHT22;8239;48.594;8.598;2022-10-16T13:19:59;31.80;44.50
16263;DHT22;8239;48.594;8.598;2022-10-16T13:22:33;31.60;45.60
16263;DHT22;8239;48.594;8.598;2022-10-16T13:25:24;31.30;45.60
16263;DHT22;8239;48.594;8.598;2022-10-16T13:27:56;30.70;45.40
16263;DHT22;8239;48.594;8.598;2022-10-16T13:30:32;30.00;46.40
16263;DHT22;8239;48.594;8.598;2022-10-16T13:33:04;29.30;47.70
16263;DHT22;8239;48.594;8.598;2022-10-16T13:35:34;28.70;49.70
16263;DHT22;8239;48.594;8.598;2022-10-16T13:38:20;28.20;51.70
16263;DHT22;8239;48.594;8.598;2022-10-16T13:40:53;27.80;52.60
16263;DHT22;8239;48.594;8.598;2022-10-16T13:43:23;27.50;53.10
16263;DHT22;8239;48.594;8.598;2022-10-16T13:45:56;27.30;53.90
16263;DHT22;8239;48.594;8.598;2022-10-16T13:48:25;27.30;55.40
16263;DHT22;8239;48.594;8.598;2022-10-16T13:51:00;27.50;55.30
16263;DHT22;8239;48.594;8.598;2022-10-16T13:53:27;27.50;54.40
16263;DHT22;8239;48.594;8.598;2022-10-16T13:55:54;27.50;56.20
16263;DHT22;8239;48.594;8.598;2022-10-16T13:58:21;28.20;54.30
16263;DHT22;8239;48.594;8.598;2022-10-16T14:00:56;29.50;52.40
16263;DHT22;8239;48.594;8.598;2022-10-16T14:03:25;30.80;48.70
16263;DHT22;8239;48.594;8.598;2022-10-16T14:05:55;31.80;46.90
16263;DHT22;8239;48.594;8.598;2022-10-16T14:08:23;32.50;45.20
16263;DHT22;8239;48.594;8.598;2022-10-16T14:10:53;33.30;44.30
16263;DHT22;8239;48.594;8.598;2022-10-16T14:13:28;34.30;42.40
16263;DHT22;8239;48.594;8.598;2022-10-16T14:15:56;35.10;39.60
16263;DHT22;8239;48.594;8.598;2022-10-16T14:18:27;35.60;38.60
16263;DHT22;8239;48.594;8.598;2022-10-16T14:20:54;35.90;38.90
16263;DHT22;8239;48.594;8.598;2022-10-16T14:23:23;36.30;39.30
16263;DHT22;8239;48.594;8.598;2022-10-16T14:26:06;36.20;37.90
16263;DHT22;8239;48.594;8.598;2022-10-16T14:28:40;35.40;38.10
16263;DHT22;8239;48.594;8.598;2022-10-16T14:31:25;33.90;39.70
16263;DHT22;8239;48.594;8.598;2022-10-16T14:33:54;33.00;41.30
16263;DHT22;8239;48.594;8.598;2022-10-16T14:36:22;32.70;42.90
16263;DHT22;8239;48.594;8.598;2022-10-16T14:38:59;33.00;43.00
16263;DHT22;8239;48.594;8.598;2022-10-16T14:41:28;33.80;42.60
16263;DHT22;8239;48.594;8.598;2022-10-16T14:43:56;34.20;41.20
16263;DHT22;8239;48.594;8.598;2022-10-16T14:46:31;34.40;41.40
16263;DHT22;8239;48.594;8.598;2022-10-16T14:49:05;34.70;40.80
16263;DHT22;8239;48.594;8.598;2022-10-16T14:51:41;34.30;40.20
16263;DHT22;8239;48.594;8.598;2022-10-16T14:54:11;33.80;41.00
16263;DHT22;8239;48.594;8.598;2022-10-16T14:56:45;33.10;42.10
16263;DHT22;8239;48.594;8.598;2022-10-16T14:59:17;32.40;43.50
16263;DHT22;8239;48.594;8.598;2022-10-16T15:01:45;32.10;43.40
16263;DHT22;8239;48.594;8.598;2022-10-16T15:04:14;31.60;43.80
16263;DHT22;8239;48.594;8.598;2022-10-16T15:06:41;31.40;43.90
16263;DHT22;8239;48.594;8.598;2022-10-16T15:09:08;31.40;44.10
16263;DHT22;8239;48.594;8.598;2022-10-16T15:11:35;31.50;44.50
16263;DHT22;8239;48.594;8.598;2022-10-16T15:14:03;31.70;44.70
16263;DHT22;8239;48.594;8.598;2022-10-16T15:16:30;31.10;45.60
16263;DHT22;8239;48.594;8.598;2022-10-16T15:18:58;30.20;46.90
16263;DHT22;8239;48.594;8.598;2022-10-16T15:21:28;29.40;48.70
16263;DHT22;8239;48.594;8.598;2022-10-16T15:23:56;28.50;49.80
16263;DHT22;8239;48.594;8.598;2022-10-16T15:26:23;27.80;51.70
16263;DHT22;8239;48.594;8.598;2022-10-16T15:28:51;27.20;52.00
16263;DHT22;8239;48.594;8.598;2022-10-16T15:31:18;26.60;53.20
16263;DHT22;8239;48.594;8.598;2022-10-16T15:33:45;26.00;54.30
16263;DHT22;8239;48.594;8.598;2022-10-16T15:36:26;25.30;56.00
16263;DHT22;8239;48.594;8.598;2022-10-16T15:38:53;24.90;57.70
16263;DHT22;8239;48.594;8.598;2022-10-16T15:41:20;24.90;58.50
16263;DHT22;8239;48.594;8.598;2022-10-16T15:43:49;25.10;58.60
16263;DHT22;8239;48.594;8.598;2022-10-16T15:46:18;25.10;58.20
16263;DHT22;8239;48.594;8.598;2022-10-16T15:48:46;25.10;58.90
16263;DHT22;8239;48.594;8.598;2022-10-16T15:51:13;25.00;60.10
16263;DHT22;8239;48.594;8.598;2022-10-16T15:53:41;24.90;61.40
16263;DHT22;8239;48.594;8.598;2022-10-16T15:56:10;24.60;62.50
16263;DHT22;8239;48.594;8.598;2022-10-16T15:58:38;24.20;63.70
16263;DHT22;8239;48.594;8.598;2022-10-16T16:01:05;23.70;64.60
16263;DHT22;8239;48.594;8.598;2022-10-16T16:03:35;23.20;67.40
16263;DHT22;8239;48.594;8.598;2022-10-16T16:06:06;22.70;70.50
16263;DHT22;8239;48.594;8.598;2022-10-16T16:08:33;22.70;73.40
16263;DHT22;8239;48.594;8.598;2022-10-16T16:11:04;22.70;73.90
16263;DHT22;8239;48.594;8.598;2022-10-16T16:13:31;22.70;74.90
16263;DHT22;8239;48.594;8.598;2022-10-16T16:15:58;22.50;75.90
16263;DHT22;8239;48.594;8.598;2022-10-16T16:18:26;22.40;76.50
16263;DHT22;8239;48.594;8.598;2022-10-16T16:20:54;22.10;78.10